Time;durP1;ratioP1;P1;durP2;ratioP2;P2;SDS_P1;SDS_P2;PMS_P1;PMS_P2;Temp;Humidity;BMP_temperature;BMP_pressure;BME280_temperature;BME280_humidity;BME280_pressure;Samples;Min_cycle;Max_cycle;Signal;HPM_P1;HPM_P2
2022/07/03 00:01:55;;;;;;;2.70;2.50;;;;;;;;;;4957146;28;20693;-77
2022/07/03 00:04:24;;;;;;;2.90;2.40;;;;;;;;;;4958235;28;20281;-77
2022/07/03 00:06:54;;;;;;;3.07;2.40;;;;;;;;;;4958264;28;20214;-77
2022/07/03 00:09:22;;;;;;;2.50;2.30;;;;;;;;;;4958409;28;20576;-77
2022/07/03 00:11:51;;;;;;;4.47;2.60;;;;;;;;;;4957987;29;20738;-76
2022/07/03 00:14:19;;;;;;;2.63;2.43;;;;;;;;;;4958077;28;20261;-76
2022/07/03 00:16:49;;;;;;;2.70;2.50;;;;;;;;;;4957356;29;20672;-76
2022/07/03 00:19:18;;;;;;;4.43;2.67;;;;;;;;;;4958175;28;20209;-77
2022/07/03 00:21:47;;;;;;;2.87;2.60;;;;;;;;;;4958386;28;20206;-77
2022/07/03 00:24:20;;;;;;;2.50;2.30;;;;;;;;;;4958020;28;20743;-77
2022/07/03 00:26:52;;;;;;;2.77;2.57;;;;;;;;;;4958254;28;20186;-77
2022/07/03 00:29:22;;;;;;;2.87;2.50;;;;;;;;;;4957781;28;20235;-77
2022/07/03 00:31:52;;;;;;;2.80;2.50;;;;;;;;;;4957205;28;20206;-77
2022/07/03 00:34:21;;;;;;;3.73;2.60;;;;;;;;;;4957982;28;20224;-77
2022/07/03 00:36:50;;;;;;;2.67;2.47;;;;;;;;;;4957530;28;20202;-76
2022/07/03 00:39:18;;;;;;;2.97;2.60;;;;;;;;;;4957598;28;20257;-77
2022/07/03 00:41:47;;;;;;;3.53;2.67;;;;;;;;;;4957941;28;20210;-77
2022/07/03 00:44:15;;;;;;;2.57;2.37;;;;;;;;;;4957515;28;20202;-77
2022/07/03 00:46:47;;;;;;;3.97;3.07;;;;;;;;;;4956980;28;20609;-77
2022/07/03 00:49:19;;;;;;;3.50;2.63;;;;;;;;;;4957938;28;20230;-76
2022/07/03 00:51:52;;;;;;;2.97;2.50;;;;;;;;;;4957837;28;20660;-77
2022/07/03 00:54:21;;;;;;;3.40;3.10;;;;;;;;;;4957518;28;20222;-77
2022/07/03 00:56:51;;;;;;;3.10;2.80;;;;;;;;;;4957606;28;20265;-77
2022/07/03 00:59:20;;;;;;;3.03;2.80;;;;;;;;;;4957362;28;20213;-77
2022/07/03 01:01:54;;;;;;;3.37;3.07;;;;;;;;;;4956810;29;20592;-77
2022/07/03 01:04:30;;;;;;;2.93;2.73;;;;;;;;;;4957654;28;20233;-77
2022/07/03 01:07:02;;;;;;;5.20;3.10;;;;;;;;;;4957045;29;20221;-77
2022/07/03 01:09:39;;;;;;;3.50;3.00;;;;;;;;;;4957314;29;20226;-77
2022/07/03 01:12:11;;;;;;;2.87;2.50;;;;;;;;;;4957106;28;20194;-77
2022/07/03 01:14:47;;;;;;;2.63;2.43;;;;;;;;;;4956375;29;20226;-76
2022/07/03 01:17:22;;;;;;;3.73;2.57;;;;;;;;;;4956941;28;20721;-77
2022/07/03 01:19:55;;;;;;;3.17;2.50;;;;;;;;;;4957197;28;20619;-77
2022/07/03 01:22:31;;;;;;;2.77;2.37;;;;;;;;;;4956900;28;20210;-77
2022/07/03 01:25:17;;;;;;;2.63;2.40;;;;;;;;;;4956635;28;20245;-77
2022/07/03 01:30:44;;;;;;;3.40;2.60;;;;;;;;;;4955580;28;20226;-77
2022/07/03 01:33:13;;;;;;;3.20;2.90;;;;;;;;;;4957082;29;20622;-77
2022/07/03 01:35:43;;;;;;;5.60;2.60;;;;;;;;;;4956867;28;20230;-77
2022/07/03 01:38:12;;;;;;;2.93;2.70;;;;;;;;;;4956627;28;20213;-77
2022/07/03 01:40:41;;;;;;;3.13;2.83;;;;;;;;;;4956709;28;20238;-77
2022/07/03 01:43:12;;;;;;;3.07;2.87;;;;;;;;;;4955237;28;20207;-76
2022/07/03 01:45:47;;;;;;;3.47;2.87;;;;;;;;;;4955324;29;20284;-76
2022/07/03 01:48:15;;;;;;;4.63;2.90;;;;;;;;;;4956840;29;20640;-77
2022/07/03 01:50:44;;;;;;;2.70;2.50;;;;;;;;;;4956047;29;20226;-77
2022/07/03 01:53:13;;;;;;;3.93;3.00;;;;;;;;;;4956515;28;20207;-77
2022/07/03 01:55:43;;;;;;;3.20;2.90;;;;;;;;;;4956651;28;20226;-77
2022/07/03 01:58:13;;;;;;;3.20;2.90;;;;;;;;;;4955476;28;20213;-77
2022/07/03 02:00:46;;;;;;;4.17;3.10;;;;;;;;;;4956659;29;20195;-77
2022/07/03 02:03:23;;;;;;;3.30;3.10;;;;;;;;;;4956181;28;20211;-77
2022/07/03 02:05:54;;;;;;;4.63;2.97;;;;;;;;;;4955998;29;20226;-77
2022/07/03 02:08:29;;;;;;;6.23;3.50;;;;;;;;;;4956175;28;20210;-77
2022/07/03 02:11:07;;;;;;;4.07;3.40;;;;;;;;;;4956043;28;20214;-77
2022/07/03 02:13:40;;;;;;;4.13;3.20;;;;;;;;;;4955400;28;20206;-77
2022/07/03 02:16:10;;;;;;;3.40;3.03;;;;;;;;;;4955836;28;20234;-76
2022/07/03 02:18:40;;;;;;;4.23;2.90;;;;;;;;;;4955441;28;20202;-76
2022/07/03 02:21:12;;;;;;;4.13;3.03;;;;;;;;;;4956170;28;20250;-76
2022/07/03 02:23:44;;;;;;;6.80;3.27;;;;;;;;;;4956598;28;20194;-77
2022/07/03 02:26:15;;;;;;;3.10;2.80;;;;;;;;;;4956144;28;20243;-77
2022/07/03 02:28:57;;;;;;;2.60;2.40;;;;;;;;;;4955145;28;20258;-77
2022/07/03 02:31:26;;;;;;;2.90;2.63;;;;;;;;;;4955884;28;20277;-76
2022/07/03 02:33:58;;;;;;;3.27;2.97;;;;;;;;;;4955765;29;20230;-77
2022/07/03 02:36:30;;;;;;;2.80;2.60;;;;;;;;;;4955580;29;20210;-77
2022/07/03 02:38:59;;;;;;;3.87;2.80;;;;;;;;;;4955751;29;20210;-77
2022/07/03 02:41:31;;;;;;;3.30;3.00;;;;;;;;;;4955296;28;20625;-76
2022/07/03 02:44:02;;;;;;;4.57;3.13;;;;;;;;;;4955124;29;20582;-76
2022/07/03 02:46:51;;;;;;;4.03;3.10;;;;;;;;;;4955573;29;20219;-76
2022/07/03 02:49:31;;;;;;;4.37;3.27;;;;;;;;;;4955657;28;20215;-76
2022/07/03 02:52:04;;;;;;;5.43;3.37;;;;;;;;;;4955843;28;20260;-77
2022/07/03 02:54:34;;;;;;;4.10;3.47;;;;;;;;;;4955590;28;20262;-77
2022/07/03 02:57:07;;;;;;;3.70;3.20;;;;;;;;;;4954643;28;20206;-77
2022/07/03 02:59:45;;;;;;;3.70;3.40;;;;;;;;;;4955529;28;20201;-77
2022/07/03 03:02:16;;;;;;;3.50;3.20;;;;;;;;;;4956246;28;20191;-77
2022/07/03 03:04:47;;;;;;;3.60;2.80;;;;;;;;;;4953858;28;20230;-77
2022/07/03 03:07:18;;;;;;;3.67;3.33;;;;;;;;;;4958461;29;20210;-76
2022/07/03 03:09:49;;;;;;;3.80;3.20;;;;;;;;;;4955368;28;20688;-77
2022/07/03 03:12:23;;;;;;;3.97;3.00;;;;;;;;;;4954377;29;20202;-77
2022/07/03 03:14:59;;;;;;;3.37;3.07;;;;;;;;;;4954666;29;20244;-76
2022/07/03 03:17:30;;;;;;;4.67;3.30;;;;;;;;;;4955281;29;20664;-76
2022/07/03 03:20:00;;;;;;;3.10;2.90;;;;;;;;;;4955278;29;20638;-77
2022/07/03 03:22:31;;;;;;;4.60;3.20;;;;;;;;;;4955202;28;20266;-77
2022/07/03 03:25:00;;;;;;;3.87;3.00;;;;;;;;;;4954255;28;20238;-76
2022/07/03 03:27:29;;;;;;;4.60;2.97;;;;;;;;;;4954894;28;20210;-77
2022/07/03 03:29:59;;;;;;;5.70;3.03;;;;;;;;;;4957380;28;20687;-77
2022/07/03 03:32:27;;;;;;;6.40;3.10;;;;;;;;;;4958855;29;20210;-77
2022/07/03 03:34:56;;;;;;;8.00;3.67;;;;;;;;;;4958744;29;20284;-76
2022/07/03 03:37:24;;;;;;;5.00;3.53;;;;;;;;;;4959007;28;20206;-77
2022/07/03 03:39:53;;;;;;;4.03;3.63;;;;;;;;;;4957742;28;20206;-77
2022/07/03 03:42:21;;;;;;;6.33;3.23;;;;;;;;;;4958725;29;20221;-77
2022/07/03 03:44:49;;;;;;;3.80;3.20;;;;;;;;;;4958810;28;20284;-76
2022/07/03 03:47:19;;;;;;;5.40;3.27;;;;;;;;;;4958793;28;20217;-77
2022/07/03 03:49:48;;;;;;;6.17;3.30;;;;;;;;;;4958565;28;20264;-77
2022/07/03 03:52:16;;;;;;;4.67;3.50;;;;;;;;;;4958522;28;20206;-77
2022/07/03 03:54:45;;;;;;;4.73;3.50;;;;;;;;;;4957836;28;20285;-76
2022/07/03 03:57:17;;;;;;;5.03;2.80;;;;;;;;;;4958862;28;20210;-77
2022/07/03 03:59:46;;;;;;;10.00;3.43;;;;;;;;;;4958239;28;20210;-77
2022/07/03 04:02:14;;;;;;;6.00;3.17;;;;;;;;;;4958517;28;20269;-77
2022/07/03 04:04:44;;;;;;;3.93;3.20;;;;;;;;;;4958028;28;20596;-77
2022/07/03 04:07:13;;;;;;;6.13;3.23;;;;;;;;;;4958496;29;20202;-77
2022/07/03 04:09:41;;;;;;;3.57;3.27;;;;;;;;;;4957789;29;20214;-77
2022/07/03 04:12:11;;;;;;;5.13;3.20;;;;;;;;;;4958429;28;20229;-77
2022/07/03 04:14:39;;;;;;;3.50;3.20;;;;;;;;;;4958081;28;20356;-77
2022/07/03 04:17:08;;;;;;;3.37;3.03;;;;;;;;;;4958311;28;20206;-77
2022/07/03 04:19:36;;;;;;;3.40;3.10;;;;;;;;;;4958178;28;20207;-76
2022/07/03 04:22:08;;;;;;;3.20;3.00;;;;;;;;;;4958246;28;20202;-76
2022/07/03 04:24:36;;;;;;;4.13;3.30;;;;;;;;;;4956961;28;20253;-77
2022/07/03 04:27:05;;;;;;;4.67;3.30;;;;;;;;;;4958098;29;20559;-77
2022/07/03 04:29:34;;;;;;;3.97;3.57;;;;;;;;;;4958293;28;20557;-76
2022/07/03 04:32:02;;;;;;;3.57;3.27;;;;;;;;;;4958011;29;20225;-77
2022/07/03 04:34:31;;;;;;;5.30;3.90;;;;;;;;;;4957868;28;20234;-76
2022/07/03 04:36:59;;;;;;;6.57;4.30;;;;;;;;;;4957527;29;20698;-76
2022/07/03 04:39:30;;;;;;;4.40;4.00;;;;;;;;;;4956970;28;20218;-77
2022/07/03 04:41:58;;;;;;;4.57;4.20;;;;;;;;;;4957844;28;20182;-77
2022/07/03 04:44:27;;;;;;;4.40;4.07;;;;;;;;;;4957458;28;20230;-76
2022/07/03 04:46:55;;;;;;;5.60;4.50;;;;;;;;;;4957484;28;20562;-76
2022/07/03 04:49:24;;;;;;;6.10;4.27;;;;;;;;;;4957463;28;20215;-77
2022/07/03 04:51:53;;;;;;;5.67;4.73;;;;;;;;;;4957452;28;20258;-77
2022/07/03 04:54:21;;;;;;;8.60;4.80;;;;;;;;;;4955863;28;20703;-77
2022/07/03 04:56:51;;;;;;;6.93;4.93;;;;;;;;;;4957534;28;20215;-77
2022/07/03 04:59:19;;;;;;;6.17;5.10;;;;;;;;;;4957110;28;20339;-76
2022/07/03 05:01:49;;;;;;;5.60;5.20;;;;;;;;;;4957705;29;20716;-77
2022/07/03 05:04:18;;;;;;;5.50;4.80;;;;;;;;;;4957201;28;20202;-77
2022/07/03 05:06:46;;;;;;;5.27;4.80;;;;;;;;;;4956567;28;20214;-77
2022/07/03 05:09:15;;;;;;;5.17;4.70;;;;;;;;;;4957180;29;20202;-77
2022/07/03 05:11:43;;;;;;;6.40;4.83;;;;;;;;;;4957442;28;20620;-76
2022/07/03 05:14:13;;;;;;;10.23;4.90;;;;;;;;;;4957119;28;20676;-76
2022/07/03 05:16:42;;;;;;;5.63;4.20;;;;;;;;;;4957242;28;20209;-77
2022/07/03 05:19:10;;;;;;;4.73;4.20;;;;;;;;;;4957078;29;20254;-77
2022/07/03 05:21:39;;;;;;;7.03;4.20;;;;;;;;;;4956763;28;20587;-77
2022/07/03 05:24:08;;;;;;;4.87;3.80;;;;;;;;;;4956884;28;20210;-76
2022/07/03 05:26:40;;;;;;;7.33;4.20;;;;;;;;;;4956748;28;20211;-77
2022/07/03 05:29:08;;;;;;;4.50;4.10;;;;;;;;;;4957341;28;20211;-77
2022/07/03 05:31:38;;;;;;;5.10;4.17;;;;;;;;;;4957218;29;20261;-77
2022/07/03 05:34:06;;;;;;;7.55;3.90;;;;;;;;;;4956714;29;20203;-77
2022/07/03 05:36:35;;;;;;;6.40;3.50;;;;;;;;;;4956195;28;20657;-77
2022/07/03 05:41:49;;;;;;;3.50;2.88;;;;;;;;;;4956875;28;20202;-77
2022/07/03 05:44:17;;;;;;;4.25;2.95;;;;;;;;;;4956540;28;20202;-77
2022/07/03 05:46:47;;;;;;;3.10;2.78;;;;;;;;;;4956557;28;20265;-77
2022/07/03 05:49:16;;;;;;;5.10;2.85;;;;;;;;;;4956169;28;20766;-77
2022/07/03 05:51:44;;;;;;;3.03;2.72;;;;;;;;;;4955397;28;20579;-77
2022/07/03 05:54:13;;;;;;;2.70;2.50;;;;;;;;;;4955754;28;20211;-77
2022/07/03 05:56:41;;;;;;;2.50;2.30;;;;;;;;;;4956569;29;20283;-77
2022/07/03 05:59:09;;;;;;;3.15;2.80;;;;;;;;;;4956365;28;20210;-77
2022/07/03 06:01:38;;;;;;;5.07;2.35;;;;;;;;;;4956206;29;20199;-77
2022/07/03 06:04:08;;;;;;;4.03;2.20;;;;;;;;;;4955043;28;20554;-76
2022/07/03 06:06:37;;;;;;;2.50;2.13;;;;;;;;;;4956075;29;20216;-77
2022/07/03 06:09:05;;;;;;;2.25;2.05;;;;;;;;;;4955525;28;20217;-76
2022/07/03 06:11:34;;;;;;;4.22;1.90;;;;;;;;;;4956726;28;20277;-77
2022/07/03 06:14:06;;;;;;;4.55;2.28;;;;;;;;;;4959473;28;20261;-77
2022/07/03 06:16:36;;;;;;;4.22;1.90;;;;;;;;;;4959350;28;20245;-75
2022/07/03 06:19:04;;;;;;;3.25;2.08;;;;;;;;;;4956152;28;20213;-75
2022/07/03 06:21:34;;;;;;;1.85;1.75;;;;;;;;;;4955703;28;20215;-75
2022/07/03 06:24:03;;;;;;;2.55;1.90;;;;;;;;;;4955222;28;20206;-74
2022/07/03 06:26:31;;;;;;;3.78;1.80;;;;;;;;;;4956160;28;20735;-74
2022/07/03 06:29:00;;;;;;;2.65;1.65;;;;;;;;;;4955987;29;20211;-75
2022/07/03 06:31:28;;;;;;;2.95;1.80;;;;;;;;;;4955752;28;20207;-75
2022/07/03 06:33:57;;;;;;;2.00;1.70;;;;;;;;;;4955515;28;20261;-75
2022/07/03 06:36:27;;;;;;;2.78;1.90;;;;;;;;;;4955244;28;20234;-74
2022/07/03 06:38:57;;;;;;;4.35;1.70;;;;;;;;;;4954997;28;20699;-75
2022/07/03 06:41:26;;;;;;;3.65;1.90;;;;;;;;;;4955325;28;20211;-75
2022/07/03 06:43:54;;;;;;;3.45;1.90;;;;;;;;;;4954561;28;20579;-75
2022/07/03 06:46:22;;;;;;;2.95;1.80;;;;;;;;;;4955044;29;20230;-74
2022/07/03 06:48:51;;;;;;;2.65;1.67;;;;;;;;;;4955453;29;20210;-75
2022/07/03 06:51:19;;;;;;;2.03;1.83;;;;;;;;;;4954692;28;20225;-75
2022/07/03 06:53:48;;;;;;;3.42;1.98;;;;;;;;;;4955145;28;20222;-75
2022/07/03 06:56:18;;;;;;;2.38;1.60;;;;;;;;;;4955274;28;20222;-74
2022/07/03 06:58:46;;;;;;;1.70;1.60;;;;;;;;;;4955431;28;20207;-75
2022/07/03 07:01:15;;;;;;;1.70;1.60;;;;;;;;;;4955626;28;20203;-75
2022/07/03 07:03:43;;;;;;;1.70;1.60;;;;;;;;;;4955018;28;20198;-75
2022/07/03 07:06:12;;;;;;;1.90;1.70;;;;;;;;;;4954304;29;20227;-75
2022/07/03 07:08:40;;;;;;;3.45;1.80;;;;;;;;;;4954596;28;20210;-75
2022/07/03 07:11:09;;;;;;;2.85;1.65;;;;;;;;;;4955437;28;20603;-75
2022/07/03 07:13:38;;;;;;;1.67;1.58;;;;;;;;;;4955130;28;20292;-75
2022/07/03 07:16:07;;;;;;;1.45;1.35;;;;;;;;;;4954886;28;20273;-75
2022/07/03 07:18:36;;;;;;;1.85;1.63;;;;;;;;;;4954123;28;20293;-75
2022/07/03 07:21:04;;;;;;;1.70;1.60;;;;;;;;;;4954788;28;20202;-75
2022/07/03 07:23:33;;;;;;;4.05;1.50;;;;;;;;;;4955852;28;20561;-75
2022/07/03 07:26:01;;;;;;;2.22;1.55;;;;;;;;;;4954967;28;20643;-75
2022/07/03 07:28:30;;;;;;;4.50;1.63;;;;;;;;;;4955055;28;20206;-74
2022/07/03 07:31:00;;;;;;;1.83;1.60;;;;;;;;;;4955113;28;20222;-75
2022/07/03 07:33:28;;;;;;;1.80;1.63;;;;;;;;;;4954236;28;20226;-75
2022/07/03 07:35:57;;;;;;;1.85;1.55;;;;;;;;;;4955366;28;20240;-75
2022/07/03 07:38:25;;;;;;;2.08;1.55;;;;;;;;;;4955018;28;20207;-75
2022/07/03 07:40:53;;;;;;;1.58;1.48;;;;;;;;;;4955185;28;20207;-75
2022/07/03 07:43:22;;;;;;;2.15;1.77;;;;;;;;;;4954772;29;20203;-75
2022/07/03 07:45:50;;;;;;;1.85;1.48;;;;;;;;;;4954553;28;20223;-76
2022/07/03 07:48:20;;;;;;;2.05;1.60;;;;;;;;;;4953480;29;20217;-75
2022/07/03 07:50:49;;;;;;;2.35;1.70;;;;;;;;;;4954674;28;20222;-76
2022/07/03 07:53:18;;;;;;;1.50;1.40;;;;;;;;;;4954700;28;20230;-75
2022/07/03 07:55:46;;;;;;;1.60;1.50;;;;;;;;;;4954494;28;20229;-75
2022/07/03 07:58:14;;;;;;;2.25;1.33;;;;;;;;;;4954567;28;20262;-75
2022/07/03 08:06:14;;;;;;;2.22;1.27;;;;;;;;;;4953285;28;20281;-76
2022/07/03 08:08:42;;;;;;;1.67;1.40;;;;;;;;;;4952718;29;20209;-75
2022/07/03 08:11:10;;;;;;;2.33;1.52;;;;;;;;;;4954681;29;20206;-75
2022/07/03 08:13:39;;;;;;;1.42;1.15;;;;;;;;;;4954442;29;20273;-73
2022/07/03 08:16:07;;;;;;;1.55;1.30;;;;;;;;;;4956531;28;20230;-72
2022/07/03 08:18:37;;;;;;;2.50;1.27;;;;;;;;;;4957947;29;20213;-75
2022/07/03 08:21:11;;;;;;;2.70;1.27;;;;;;;;;;4957843;28;20213;-75
2022/07/03 08:23:39;;;;;;;2.53;1.30;;;;;;;;;;4957409;28;20614;-76
2022/07/03 08:26:08;;;;;;;4.07;1.20;;;;;;;;;;4958063;28;20222;-75
2022/07/03 08:28:37;;;;;;;2.28;1.20;;;;;;;;;;4957926;28;20676;-75
2022/07/03 08:34:18;;;;;;;3.33;1.40;;;;;;;;;;4957581;28;20317;-73
2022/07/03 08:36:47;;;;;;;1.73;1.30;;;;;;;;;;4957616;28;20213;-72
2022/07/03 08:39:15;;;;;;;3.00;1.65;;;;;;;;;;4957203;28;20209;-72
2022/07/03 08:41:44;;;;;;;2.20;1.10;;;;;;;;;;4957996;28;20226;-72
2022/07/03 08:44:13;;;;;;;1.40;1.10;;;;;;;;;;4957400;28;20265;-73
2022/07/03 08:46:41;;;;;;;1.65;1.25;;;;;;;;;;4956148;28;20207;-73
2022/07/03 08:49:11;;;;;;;2.42;1.05;;;;;;;;;;4957859;28;20218;-72
2022/07/03 08:51:42;;;;;;;1.50;1.17;;;;;;;;;;4957457;28;20210;-72
2022/07/03 08:54:10;;;;;;;3.00;1.25;;;;;;;;;;4957296;28;20313;-72
2022/07/03 08:56:39;;;;;;;2.78;1.17;;;;;;;;;;4955953;28;20210;-73
2022/07/03 08:59:08;;;;;;;4.57;1.73;;;;;;;;;;4957465;28;20211;-75
2022/07/03 09:01:41;;;;;;;2.10;1.35;;;;;;;;;;4957214;29;20218;-75
2022/07/03 09:04:13;;;;;;;1.08;0.85;;;;;;;;;;4957215;29;20584;-75
2022/07/03 09:06:44;;;;;;;13.98;1.35;;;;;;;;;;4957150;29;20234;-73
2022/07/03 09:09:12;;;;;;;1.90;1.00;;;;;;;;;;4956963;28;20206;-75
2022/07/03 09:11:41;;;;;;;5.10;1.10;;;;;;;;;;4956094;29;20219;-74
2022/07/03 09:14:10;;;;;;;2.80;1.20;;;;;;;;;;4957294;28;20730;-75
2022/07/03 09:16:39;;;;;;;1.83;1.10;;;;;;;;;;4956953;28;20672;-75
2022/07/03 09:19:07;;;;;;;2.42;0.85;;;;;;;;;;4956853;29;20213;-75
2022/07/03 09:21:39;;;;;;;1.50;1.13;;;;;;;;;;4956894;28;20211;-75
2022/07/03 09:24:10;;;;;;;2.47;1.50;;;;;;;;;;4957065;28;20199;-74
2022/07/03 09:26:51;;;;;;;2.28;1.50;;;;;;;;;;4956992;28;20211;-75
2022/07/03 09:29:20;;;;;;;1.02;0.90;;;;;;;;;;4957310;28;20273;-75
2022/07/03 09:31:55;;;;;;;1.67;0.80;;;;;;;;;;4957119;28;20664;-75
2022/07/03 09:34:26;;;;;;;1.35;0.93;;;;;;;;;;4956110;28;20244;-75
2022/07/03 09:36:55;;;;;;;1.65;0.95;;;;;;;;;;4956931;28;20217;-75
2022/07/03 09:39:25;;;;;;;1.25;0.90;;;;;;;;;;4955578;28;20285;-73
2022/07/03 09:41:58;;;;;;;2.15;1.15;;;;;;;;;;4957108;28;20195;-74
2022/07/03 09:44:35;;;;;;;2.42;1.20;;;;;;;;;;4956224;28;20222;-74
2022/07/03 09:47:08;;;;;;;2.00;0.90;;;;;;;;;;4957576;28;20684;-75
2022/07/03 09:49:52;;;;;;;2.63;1.00;;;;;;;;;;4956021;28;20210;-75
2022/07/03 09:52:37;;;;;;;1.27;0.82;;;;;;;;;;4956594;28;20210;-75
2022/07/03 09:55:17;;;;;;;1.85;1.13;;;;;;;;;;4954997;28;20285;-75
2022/07/03 09:57:46;;;;;;;1.30;0.93;;;;;;;;;;4956664;28;20710;-72
2022/07/03 10:00:16;;;;;;;1.23;0.90;;;;;;;;;;4956189;28;20291;-72
2022/07/03 10:02:57;;;;;;;1.60;0.95;;;;;;;;;;4956196;28;20592;-73
2022/07/03 10:05:27;;;;;;;2.75;1.00;;;;;;;;;;4956016;28;20226;-73
2022/07/03 10:07:57;;;;;;;2.27;1.30;;;;;;;;;;4612168;28;10000431;-72
2022/07/03 10:10:27;;;;;;;1.50;1.20;;;;;;;;;;4950560;29;20439;-73
2022/07/03 10:12:56;;;;;;;2.50;1.40;;;;;;;;;;4953079;28;20676;-72
2022/07/03 10:15:28;;;;;;;1.30;1.00;;;;;;;;;;4952729;28;20687;-73
2022/07/03 10:17:59;;;;;;;1.42;0.90;;;;;;;;;;4955838;29;20234;-73
2022/07/03 10:20:29;;;;;;;1.77;1.02;;;;;;;;;;4955854;29;20614;-74
2022/07/03 10:22:57;;;;;;;1.60;0.90;;;;;;;;;;4955325;29;20660;-73
2022/07/03 10:25:27;;;;;;;2.00;0.95;;;;;;;;;;4943074;29;20607;-73
2022/07/03 10:27:57;;;;;;;1.30;0.80;;;;;;;;;;4936568;28;20260;-73
2022/07/03 10:30:26;;;;;;;3.03;1.08;;;;;;;;;;4936494;29;20267;-73
2022/07/03 10:32:55;;;;;;;0.77;0.77;;;;;;;;;;4936437;29;20207;-73
2022/07/03 10:35:25;;;;;;;1.60;1.00;;;;;;;;;;4936186;29;20235;-73
2022/07/03 10:37:59;;;;;;;1.20;0.70;;;;;;;;;;4936117;29;20258;-73
2022/07/03 10:46:12;;;;;;;1.40;0.90;;;;;;;;;;4943877;28;20226;-73
2022/07/03 10:48:54;;;;;;;1.80;0.90;;;;;;;;;;4955547;29;20206;-74
2022/07/03 10:51:22;;;;;;;1.13;0.80;;;;;;;;;;4955185;28;20218;-75
2022/07/03 10:53:51;;;;;;;1.65;0.80;;;;;;;;;;4955626;28;20234;-75
2022/07/03 10:56:22;;;;;;;2.25;1.00;;;;;;;;;;4955327;28;20226;-74
2022/07/03 10:58:56;;;;;;;1.17;1.00;;;;;;;;;;4954291;28;20257;-75
2022/07/03 11:01:28;;;;;;;0.52;0.52;;;;;;;;;;4955334;28;20257;-75
2022/07/03 11:04:00;;;;;;;1.75;0.98;;;;;;;;;;4954947;28;20210;-75
2022/07/03 11:06:48;;;;;;;1.20;0.90;;;;;;;;;;4955281;28;20202;-73
2022/07/03 11:09:17;;;;;;;2.28;1.10;;;;;;;;;;4955073;28;20297;-75
2022/07/03 11:11:57;;;;;;;1.10;0.90;;;;;;;;;;4955547;29;20261;-75
2022/07/03 11:14:26;;;;;;;1.10;0.90;;;;;;;;;;4953356;29;20234;-75
2022/07/03 11:17:09;;;;;;;1.98;1.10;;;;;;;;;;4955055;28;20209;-74
2022/07/03 11:19:38;;;;;;;1.33;0.95;;;;;;;;;;4954742;29;20236;-75
2022/07/03 11:22:09;;;;;;;1.20;0.95;;;;;;;;;;4955419;28;20269;-74
2022/07/03 11:24:40;;;;;;;1.70;0.90;;;;;;;;;;4954762;28;20234;-75
2022/07/03 11:27:28;;;;;;;1.98;0.85;;;;;;;;;;4954547;28;20250;-75
2022/07/03 11:29:58;;;;;;;1.98;0.90;;;;;;;;;;4954488;28;20718;-75
2022/07/03 11:32:44;;;;;;;3.53;1.00;;;;;;;;;;4955007;29;20215;-75
2022/07/03 11:35:27;;;;;;;3.17;1.00;;;;;;;;;;4954581;29;20297;-75
2022/07/03 11:37:57;;;;;;;1.40;0.73;;;;;;;;;;4955000;29;20258;-74
2022/07/03 11:40:27;;;;;;;2.38;0.95;;;;;;;;;;4955156;28;20261;-75
2022/07/03 11:43:01;;;;;;;1.00;0.90;;;;;;;;;;4953918;28;20215;-76
2022/07/03 11:45:30;;;;;;;1.23;0.93;;;;;;;;;;4954519;29;20293;-73
2022/07/03 11:47:58;;;;;;;1.85;0.95;;;;;;;;;;4954925;29;20622;-76
2022/07/03 11:50:37;;;;;;;1.63;0.90;;;;;;;;;;4956337;28;20222;-75
2022/07/03 11:53:16;;;;;;;2.25;0.80;;;;;;;;;;4958613;28;20210;-75
2022/07/03 11:55:52;;;;;;;2.40;0.80;;;;;;;;;;4958170;28;20226;-75
2022/07/03 11:58:22;;;;;;;1.95;0.90;;;;;;;;;;4957966;28;20214;-75
2022/07/03 12:00:51;;;;;;;1.25;1.00;;;;;;;;;;4957979;29;20300;-76
2022/07/03 12:03:24;;;;;;;1.38;0.95;;;;;;;;;;4958270;29;20234;-76
2022/07/03 12:06:01;;;;;;;2.30;1.02;;;;;;;;;;4958043;29;20226;-76
2022/07/03 12:08:31;;;;;;;1.80;0.93;;;;;;;;;;4958485;28;20610;-74
2022/07/03 12:11:01;;;;;;;0.80;0.80;;;;;;;;;;4958275;28;20213;-73
2022/07/03 12:13:32;;;;;;;2.13;0.90;;;;;;;;;;4957591;28;20629;-73
2022/07/03 12:16:07;;;;;;;1.30;1.00;;;;;;;;;;4973563;28;20706;-75
2022/07/03 12:18:42;;;;;;;1.80;1.08;;;;;;;;;;4976071;28;20210;-75
2022/07/03 12:21:11;;;;;;;1.52;0.93;;;;;;;;;;4958299;28;20214;-75
2022/07/03 12:23:44;;;;;;;2.22;0.82;;;;;;;;;;4958225;28;20623;-75
2022/07/03 12:26:12;;;;;;;1.00;0.80;;;;;;;;;;4958403;28;20607;-74
2022/07/03 12:28:42;;;;;;;1.45;1.00;;;;;;;;;;4957228;28;20206;-75
2022/07/03 12:31:11;;;;;;;1.80;1.00;;;;;;;;;;4956345;28;20213;-75
2022/07/03 12:33:40;;;;;;;0.85;0.85;;;;;;;;;;4957936;28;20202;-74
2022/07/03 12:36:10;;;;;;;1.58;0.82;;;;;;;;;;4956292;29;20285;-75
2022/07/03 12:38:39;;;;;;;1.75;1.00;;;;;;;;;;4954521;28;20210;-75
2022/07/03 12:41:14;;;;;;;1.75;1.00;;;;;;;;;;4954689;29;20233;-75
2022/07/03 12:43:46;;;;;;;0.90;0.70;;;;;;;;;;4954433;29;20215;-75
2022/07/03 12:46:22;;;;;;;2.00;0.95;;;;;;;;;;4613068;28;10000394;-75
2022/07/03 12:48:52;;;;;;;3.90;1.38;;;;;;;;;;4954792;29;20434;-75
2022/07/03 12:51:40;;;;;;;1.33;1.00;;;;;;;;;;4954289;28;20241;-76
2022/07/03 12:54:09;;;;;;;1.10;0.90;;;;;;;;;;4954537;28;20672;-75
2022/07/03 12:56:38;;;;;;;2.30;0.90;;;;;;;;;;4954739;28;20226;-74
2022/07/03 12:59:24;;;;;;;2.00;0.88;;;;;;;;;;4954908;28;20214;-74
2022/07/03 13:02:04;;;;;;;1.55;1.02;;;;;;;;;;4953315;28;20583;-75
2022/07/03 13:04:34;;;;;;;0.93;0.85;;;;;;;;;;4954610;29;20602;-75
2022/07/03 13:07:03;;;;;;;1.05;0.88;;;;;;;;;;4954670;28;20266;-75
2022/07/03 13:09:32;;;;;;;1.23;0.95;;;;;;;;;;4954750;28;20587;-74
2022/07/03 13:12:00;;;;;;;2.30;1.00;;;;;;;;;;4954356;29;20651;-75
2022/07/03 13:14:30;;;;;;;1.05;0.80;;;;;;;;;;4953996;29;20230;-75
2022/07/03 13:16:59;;;;;;;1.65;0.90;;;;;;;;;;4953140;29;20227;-74
2022/07/03 13:19:29;;;;;;;1.85;1.00;;;;;;;;;;4955060;28;20241;-74
2022/07/03 13:22:01;;;;;;;2.55;0.90;;;;;;;;;;4954417;28;20734;-74
2022/07/03 13:24:30;;;;;;;2.08;1.10;;;;;;;;;;4954200;28;20313;-74
2022/07/03 13:26:59;;;;;;;1.30;0.90;;;;;;;;;;4953797;28;20206;-74
2022/07/03 13:29:27;;;;;;;0.80;0.75;;;;;;;;;;4953351;28;20436;-75
2022/07/03 13:31:57;;;;;;;2.15;0.70;;;;;;;;;;4954256;28;20445;-75
2022/07/03 13:34:26;;;;;;;2.45;0.90;;;;;;;;;;4954085;28;20234;-75
2022/07/03 13:36:54;;;;;;;2.25;1.13;;;;;;;;;;4953572;28;20234;-75
2022/07/03 13:39:23;;;;;;;2.17;1.00;;;;;;;;;;4952969;28;20213;-75
2022/07/03 13:41:51;;;;;;;1.83;0.80;;;;;;;;;;4952720;28;20218;-75
2022/07/03 13:44:21;;;;;;;2.95;0.90;;;;;;;;;;4951686;29;20214;-75
2022/07/03 13:46:49;;;;;;;4.40;0.93;;;;;;;;;;4953270;28;20206;-75
2022/07/03 13:49:21;;;;;;;2.33;0.95;;;;;;;;;;4953264;29;20269;-75
2022/07/03 13:51:49;;;;;;;1.70;0.77;;;;;;;;;;4953135;28;20250;-75
2022/07/03 13:54:18;;;;;;;2.88;1.00;;;;;;;;;;4953585;28;20218;-74
2022/07/03 13:56:47;;;;;;;1.40;0.82;;;;;;;;;;4953318;28;20226;-74
2022/07/03 13:59:15;;;;;;;2.33;0.80;;;;;;;;;;4952609;28;20210;-75
2022/07/03 14:01:44;;;;;;;2.28;1.10;;;;;;;;;;4953326;28;20705;-75
2022/07/03 14:04:12;;;;;;;0.90;0.90;;;;;;;;;;4933956;29;20217;-75
2022/07/03 14:06:42;;;;;;;1.45;0.90;;;;;;;;;;4933762;29;20203;-75
2022/07/03 14:09:11;;;;;;;1.90;0.80;;;;;;;;;;4933893;29;20207;-74
2022/07/03 14:11:40;;;;;;;2.05;0.68;;;;;;;;;;4943617;28;20214;-74
2022/07/03 14:14:09;;;;;;;1.17;1.02;;;;;;;;;;4966583;28;20221;-75
2022/07/03 14:19:21;;;;;;;1.20;0.80;;;;;;;;;;4940088;29;20718;-76
2022/07/03 14:21:51;;;;;;;1.33;1.10;;;;;;;;;;4952400;28;20673;-75
2022/07/03 14:24:19;;;;;;;1.83;0.80;;;;;;;;;;4951641;28;20210;-74
2022/07/03 14:32:32;;;;;;;3.13;1.15;;;;;;;;;;4952672;28;20206;-74
2022/07/03 14:35:01;;;;;;;1.30;1.05;;;;;;;;;;4952591;28;20230;-74
2022/07/03 14:37:31;;;;;;;1.92;1.00;;;;;;;;;;4952638;28;20766;-75
2022/07/03 14:40:00;;;;;;;3.47;1.20;;;;;;;;;;4951951;28;20206;-75
2022/07/03 14:42:28;;;;;;;3.72;1.25;;;;;;;;;;4952308;28;20272;-75
2022/07/03 14:44:57;;;;;;;2.83;1.20;;;;;;;;;;4950897;28;20261;-76
2022/07/03 14:47:25;;;;;;;1.85;1.10;;;;;;;;;;4949926;29;20211;-74
2022/07/03 14:49:54;;;;;;;1.27;1.17;;;;;;;;;;4952372;28;20676;-74
2022/07/03 14:52:22;;;;;;;3.70;1.20;;;;;;;;;;4952772;28;20211;-74
2022/07/03 14:54:53;;;;;;;2.80;1.30;;;;;;;;;;4952266;28;20282;-74
2022/07/03 14:57:34;;;;;;;1.42;1.20;;;;;;;;;;4952426;28;20234;-74
2022/07/03 15:00:04;;;;;;;1.30;1.10;;;;;;;;;;4951572;28;20651;-74
2022/07/03 15:02:44;;;;;;;1.27;1.17;;;;;;;;;;4953340;29;20209;-74
2022/07/03 15:05:14;;;;;;;2.95;1.30;;;;;;;;;;4951633;28;20281;-75
2022/07/03 15:07:43;;;;;;;1.98;1.17;;;;;;;;;;4952218;28;20206;-74
2022/07/03 15:10:15;;;;;;;1.67;1.27;;;;;;;;;;4952020;28;20210;-75
2022/07/03 15:12:44;;;;;;;2.95;1.30;;;;;;;;;;4951996;28;20217;-74
2022/07/03 15:15:14;;;;;;;2.20;1.50;;;;;;;;;;4951071;28;20234;-74
2022/07/03 15:17:43;;;;;;;2.20;1.42;;;;;;;;;;4951998;28;20233;-74
2022/07/03 15:20:13;;;;;;;2.80;1.48;;;;;;;;;;4952231;29;20706;-75
2022/07/03 15:22:43;;;;;;;2.50;1.58;;;;;;;;;;4952328;28;20237;-74
2022/07/03 15:25:14;;;;;;;3.92;1.55;;;;;;;;;;4956354;28;20257;-75
2022/07/03 15:27:43;;;;;;;2.53;1.80;;;;;;;;;;4958638;28;20568;-75
2022/07/03 15:30:11;;;;;;;2.15;1.60;;;;;;;;;;4957644;28;20717;-74
2022/07/03 15:32:41;;;;;;;2.85;1.70;;;;;;;;;;4958227;28;20213;-75